sensor_id;sensor_type;location;lat;lon;timestamp;P1;durP1;ratioP1;P2;durP2;ratioP2
74715;SDS011;63234;37.558;127.058;2022-09-28T00:00:19;12.48;;;5.30;;
74715;SDS011;63234;37.558;127.058;2022-09-28T00:02:46;13.25;;;5.45;;
74715;SDS011;63234;37.558;127.058;2022-09-28T00:05:13;11.93;;;4.70;;
74715;SDS011;63234;37.558;127.058;2022-09-28T00:07:40;26.95;;;8.93;;
74715;SDS011;63234;37.558;127.058;2022-09-28T00:10:07;12.85;;;5.15;;
74715;SDS011;63234;37.558;127.058;2022-09-28T00:12:34;10.88;;;5.75;;
74715;SDS011;63234;37.558;127.058;2022-09-28T00:15:01;10.77;;;5.55;;
74715;SDS011;63234;37.558;127.058;2022-09-28T00:17:28;10.27;;;5.53;;
74715;SDS011;63234;37.558;127.058;2022-09-28T00:19:55;11.68;;;5.32;;
74715;SDS011;63234;37.558;127.058;2022-09-28T00:22:22;7.65;;;5.28;;
74715;SDS011;63234;37.558;127.058;2022-09-28T00:24:49;11.45;;;5.40;;
74715;SDS011;63234;37.558;127.058;2022-09-28T00:27:16;8.82;;;5.03;;
74715;SDS011;63234;37.558;127.058;2022-09-28T00:29:43;10.65;;;5.30;;
74715;SDS011;63234;37.558;127.058;2022-09-28T00:32:10;10.07;;;4.82;;
74715;SDS011;63234;37.558;127.058;2022-09-28T00:34:39;8.77;;;4.80;;
74715;SDS011;63234;37.558;127.058;2022-09-28T00:37:10;9.23;;;4.47;;
74715;SDS011;63234;37.558;127.058;2022-09-28T00:39:38;8.85;;;5.32;;
74715;SDS011;63234;37.558;127.058;2022-09-28T00:42:14;7.70;;;4.45;;
74715;SDS011;63234;37.558;127.058;2022-09-28T00:50:13;8.77;;;4.53;;
74715;SDS011;63234;37.558;127.058;2022-09-28T00:55:39;9.82;;;4.35;;
74715;SDS011;63234;37.558;127.058;2022-09-28T00:58:18;9.27;;;5.75;;
74715;SDS011;63234;37.558;127.058;2022-09-28T01:00:57;9.82;;;5.22;;
74715;SDS011;63234;37.558;127.058;2022-09-28T01:03:25;7.63;;;5.10;;
74715;SDS011;63234;37.558;127.058;2022-09-28T01:05:54;12.20;;;4.97;;
74715;SDS011;63234;37.558;127.058;2022-09-28T01:08:23;16.33;;;6.13;;
74715;SDS011;63234;37.558;127.058;2022-09-28T01:10:52;10.48;;;5.47;;
74715;SDS011;63234;37.558;127.058;2022-09-28T01:13:20;11.65;;;5.22;;
74715;SDS011;63234;37.558;127.058;2022-09-28T01:21:25;11.18;;;5.32;;
74715;SDS011;63234;37.558;127.058;2022-09-28T01:29:12;8.48;;;5.30;;
74715;SDS011;63234;37.558;127.058;2022-09-28T01:31:47;21.77;;;8.35;;
74715;SDS011;63234;37.558;127.058;2022-09-28T01:34:19;19.65;;;6.38;;
74715;SDS011;63234;37.558;127.058;2022-09-28T01:36:54;9.98;;;5.57;;
74715;SDS011;63234;37.558;127.058;2022-09-28T01:39:34;10.82;;;6.55;;
74715;SDS011;63234;37.558;127.058;2022-09-28T01:42:07;11.77;;;6.13;;
74715;SDS011;63234;37.558;127.058;2022-09-28T01:44:40;13.52;;;6.28;;
74715;SDS011;63234;37.558;127.058;2022-09-28T01:47:10;11.25;;;7.03;;
74715;SDS011;63234;37.558;127.058;2022-09-28T01:49:44;10.25;;;5.78;;
74715;SDS011;63234;37.558;127.058;2022-09-28T01:54:50;12.63;;;6.88;;
74715;SDS011;63234;37.558;127.058;2022-09-28T01:57:29;11.57;;;6.90;;
74715;SDS011;63234;37.558;127.058;2022-09-28T02:00:14;10.00;;;5.70;;
74715;SDS011;63234;37.558;127.058;2022-09-28T02:02:54;13.68;;;6.25;;
74715;SDS011;63234;37.558;127.058;2022-09-28T02:05:47;10.02;;;6.43;;
74715;SDS011;63234;37.558;127.058;2022-09-28T02:11:21;11.30;;;6.78;;
74715;SDS011;63234;37.558;127.058;2022-09-28T02:19:02;18.48;;;6.50;;
74715;SDS011;63234;37.558;127.058;2022-09-28T02:21:45;9.55;;;5.50;;
74715;SDS011;63234;37.558;127.058;2022-09-28T02:24:26;8.75;;;5.53;;
74715;SDS011;63234;37.558;127.058;2022-09-28T02:27:12;9.18;;;5.93;;
74715;SDS011;63234;37.558;127.058;2022-09-28T02:29:40;11.45;;;5.80;;
74715;SDS011;63234;37.558;127.058;2022-09-28T02:32:07;10.35;;;6.15;;
74715;SDS011;63234;37.558;127.058;2022-09-28T02:34:33;8.50;;;5.80;;
74715;SDS011;63234;37.558;127.058;2022-09-28T02:37:00;11.77;;;6.20;;
74715;SDS011;63234;37.558;127.058;2022-09-28T02:39:28;12.65;;;7.18;;
74715;SDS011;63234;37.558;127.058;2022-09-28T02:49:56;10.27;;;6.20;;
74715;SDS011;63234;37.558;127.058;2022-09-28T02:53:06;9.93;;;6.03;;
74715;SDS011;63234;37.558;127.058;2022-09-28T02:55:29;12.07;;;7.50;;
74715;SDS011;63234;37.558;127.058;2022-09-28T02:58:31;12.57;;;6.97;;
74715;SDS011;63234;37.558;127.058;2022-09-28T03:03:40;14.82;;;8.02;;
74715;SDS011;63234;37.558;127.058;2022-09-28T03:06:25;11.52;;;6.75;;
74715;SDS011;63234;37.558;127.058;2022-09-28T03:12:24;14.82;;;7.60;;
74715;SDS011;63234;37.558;127.058;2022-09-28T03:17:51;16.70;;;7.20;;
74715;SDS011;63234;37.558;127.058;2022-09-28T03:20:18;12.85;;;8.05;;
74715;SDS011;63234;37.558;127.058;2022-09-28T03:22:45;11.10;;;6.80;;
74715;SDS011;63234;37.558;127.058;2022-09-28T03:25:12;11.57;;;7.65;;
74715;SDS011;63234;37.558;127.058;2022-09-28T03:27:40;14.80;;;7.43;;
74715;SDS011;63234;37.558;127.058;2022-09-28T03:30:08;11.48;;;6.75;;
74715;SDS011;63234;37.558;127.058;2022-09-28T03:32:35;14.00;;;7.63;;
74715;SDS011;63234;37.558;127.058;2022-09-28T03:35:03;13.73;;;8.05;;
74715;SDS011;63234;37.558;127.058;2022-09-28T03:37:31;10.80;;;7.47;;
74715;SDS011;63234;37.558;127.058;2022-09-28T03:39:58;9.75;;;7.15;;
74715;SDS011;63234;37.558;127.058;2022-09-28T03:42:25;14.75;;;6.97;;
74715;SDS011;63234;37.558;127.058;2022-09-28T03:44:52;13.05;;;7.88;;
74715;SDS011;63234;37.558;127.058;2022-09-28T03:47:19;11.95;;;8.10;;
74715;SDS011;63234;37.558;127.058;2022-09-28T03:49:46;12.48;;;8.75;;
74715;SDS011;63234;37.558;127.058;2022-09-28T03:52:13;11.63;;;8.20;;
74715;SDS011;63234;37.558;127.058;2022-09-28T03:54:40;17.00;;;8.05;;
74715;SDS011;63234;37.558;127.058;2022-09-28T03:57:07;13.13;;;9.05;;
74715;SDS011;63234;37.558;127.058;2022-09-28T03:59:34;11.57;;;7.40;;
74715;SDS011;63234;37.558;127.058;2022-09-28T04:02:02;12.90;;;8.10;;
74715;SDS011;63234;37.558;127.058;2022-09-28T04:04:30;12.05;;;8.38;;
74715;SDS011;63234;37.558;127.058;2022-09-28T04:06:57;17.63;;;7.60;;
74715;SDS011;63234;37.558;127.058;2022-09-28T04:09:24;13.88;;;8.45;;
74715;SDS011;63234;37.558;127.058;2022-09-28T04:11:51;13.70;;;8.57;;
74715;SDS011;63234;37.558;127.058;2022-09-28T04:14:18;13.70;;;8.35;;
74715;SDS011;63234;37.558;127.058;2022-09-28T04:16:45;11.77;;;8.48;;
74715;SDS011;63234;37.558;127.058;2022-09-28T04:19:12;14.45;;;8.30;;
74715;SDS011;63234;37.558;127.058;2022-09-28T04:21:40;11.57;;;7.90;;
74715;SDS011;63234;37.558;127.058;2022-09-28T04:24:07;14.00;;;8.95;;
74715;SDS011;63234;37.558;127.058;2022-09-28T04:26:35;15.23;;;9.55;;
74715;SDS011;63234;37.558;127.058;2022-09-28T04:29:02;17.45;;;10.20;;
74715;SDS011;63234;37.558;127.058;2022-09-28T04:31:50;10.70;;;7.85;;
74715;SDS011;63234;37.558;127.058;2022-09-28T04:34:20;14.27;;;9.25;;
74715;SDS011;63234;37.558;127.058;2022-09-28T04:36:48;13.02;;;8.45;;
74715;SDS011;63234;37.558;127.058;2022-09-28T04:39:16;11.68;;;8.57;;
74715;SDS011;63234;37.558;127.058;2022-09-28T04:41:45;17.02;;;9.43;;
74715;SDS011;63234;37.558;127.058;2022-09-28T04:44:13;15.73;;;10.80;;
74715;SDS011;63234;37.558;127.058;2022-09-28T04:46:40;13.93;;;8.20;;
74715;SDS011;63234;37.558;127.058;2022-09-28T04:49:08;17.50;;;9.55;;
74715;SDS011;63234;37.558;127.058;2022-09-28T04:51:35;67.53;;;21.27;;
74715;SDS011;63234;37.558;127.058;2022-09-28T04:54:02;14.52;;;8.80;;
74715;SDS011;63234;37.558;127.058;2022-09-28T04:56:29;17.63;;;11.88;;
74715;SDS011;63234;37.558;127.058;2022-09-28T04:58:59;15.82;;;10.15;;
74715;SDS011;63234;37.558;127.058;2022-09-28T05:01:26;12.48;;;8.82;;
74715;SDS011;63234;37.558;127.058;2022-09-28T05:03:54;16.10;;;9.65;;
74715;SDS011;63234;37.558;127.058;2022-09-28T05:06:21;19.20;;;10.82;;
74715;SDS011;63234;37.558;127.058;2022-09-28T05:08:52;14.15;;;9.30;;
74715;SDS011;63234;37.558;127.058;2022-09-28T05:11:21;14.57;;;9.60;;
74715;SDS011;63234;37.558;127.058;2022-09-28T05:13:48;13.57;;;9.13;;
74715;SDS011;63234;37.558;127.058;2022-09-28T05:16:15;11.10;;;7.85;;
74715;SDS011;63234;37.558;127.058;2022-09-28T05:18:42;16.73;;;9.27;;
74715;SDS011;63234;37.558;127.058;2022-09-28T05:21:10;13.18;;;8.18;;
74715;SDS011;63234;37.558;127.058;2022-09-28T05:23:39;14.25;;;8.50;;
74715;SDS011;63234;37.558;127.058;2022-09-28T05:26:10;14.23;;;8.15;;
74715;SDS011;63234;37.558;127.058;2022-09-28T05:28:37;11.52;;;8.00;;
74715;SDS011;63234;37.558;127.058;2022-09-28T05:31:04;12.07;;;8.85;;
74715;SDS011;63234;37.558;127.058;2022-09-28T05:33:31;16.70;;;9.75;;
74715;SDS011;63234;37.558;127.058;2022-09-28T05:35:59;12.23;;;9.02;;
74715;SDS011;63234;37.558;127.058;2022-09-28T05:38:26;16.70;;;9.07;;
74715;SDS011;63234;37.558;127.058;2022-09-28T05:40:54;16.75;;;9.05;;
74715;SDS011;63234;37.558;127.058;2022-09-28T05:43:21;14.30;;;9.75;;
74715;SDS011;63234;37.558;127.058;2022-09-28T05:45:48;13.05;;;8.43;;
74715;SDS011;63234;37.558;127.058;2022-09-28T05:48:15;19.17;;;9.18;;
74715;SDS011;63234;37.558;127.058;2022-09-28T05:50:42;22.23;;;9.23;;
74715;SDS011;63234;37.558;127.058;2022-09-28T05:53:09;11.48;;;8.55;;
74715;SDS011;63234;37.558;127.058;2022-09-28T05:55:36;12.57;;;7.95;;
74715;SDS011;63234;37.558;127.058;2022-09-28T05:58:04;13.55;;;7.95;;
74715;SDS011;63234;37.558;127.058;2022-09-28T06:00:33;11.05;;;7.18;;
74715;SDS011;63234;37.558;127.058;2022-09-28T06:03:04;14.30;;;6.97;;
74715;SDS011;63234;37.558;127.058;2022-09-28T06:05:33;9.65;;;6.10;;
74715;SDS011;63234;37.558;127.058;2022-09-28T06:08:01;12.38;;;5.38;;
74715;SDS011;63234;37.558;127.058;2022-09-28T06:10:30;8.02;;;4.32;;
74715;SDS011;63234;37.558;127.058;2022-09-28T06:12:57;9.77;;;4.55;;
74715;SDS011;63234;37.558;127.058;2022-09-28T06:15:26;6.18;;;4.13;;
74715;SDS011;63234;37.558;127.058;2022-09-28T06:17:55;7.65;;;5.95;;
74715;SDS011;63234;37.558;127.058;2022-09-28T06:20:22;6.40;;;4.65;;
74715;SDS011;63234;37.558;127.058;2022-09-28T06:22:51;9.82;;;6.05;;
74715;SDS011;63234;37.558;127.058;2022-09-28T06:25:19;24.55;;;13.95;;
74715;SDS011;63234;37.558;127.058;2022-09-28T06:27:54;9.13;;;5.55;;
74715;SDS011;63234;37.558;127.058;2022-09-28T06:30:25;11.07;;;4.72;;
74715;SDS011;63234;37.558;127.058;2022-09-28T06:32:53;12.07;;;6.18;;
74715;SDS011;63234;37.558;127.058;2022-09-28T06:35:22;8.63;;;5.40;;
74715;SDS011;63234;37.558;127.058;2022-09-28T06:37:50;11.15;;;6.50;;
74715;SDS011;63234;37.558;127.058;2022-09-28T06:40:17;23.55;;;7.15;;
74715;SDS011;63234;37.558;127.058;2022-09-28T06:43:02;10.45;;;5.60;;
74715;SDS011;63234;37.558;127.058;2022-09-28T06:45:35;10.80;;;5.53;;
74715;SDS011;63234;37.558;127.058;2022-09-28T06:48:03;8.65;;;5.55;;
74715;SDS011;63234;37.558;127.058;2022-09-28T06:50:32;12.20;;;6.32;;
74715;SDS011;63234;37.558;127.058;2022-09-28T06:53:02;23.17;;;8.18;;
74715;SDS011;63234;37.558;127.058;2022-09-28T06:55:31;11.18;;;7.10;;
74715;SDS011;63234;37.558;127.058;2022-09-28T06:58:02;13.98;;;7.50;;
74715;SDS011;63234;37.558;127.058;2022-09-28T07:00:36;12.75;;;7.80;;
74715;SDS011;63234;37.558;127.058;2022-09-28T07:03:05;11.23;;;6.47;;
74715;SDS011;63234;37.558;127.058;2022-09-28T07:05:34;10.68;;;6.15;;
74715;SDS011;63234;37.558;127.058;2022-09-28T07:08:02;8.65;;;5.63;;
74715;SDS011;63234;37.558;127.058;2022-09-28T07:10:30;13.93;;;9.23;;
74715;SDS011;63234;37.558;127.058;2022-09-28T07:13:01;14.55;;;6.82;;
74715;SDS011;63234;37.558;127.058;2022-09-28T07:15:30;15.68;;;6.90;;
74715;SDS011;63234;37.558;127.058;2022-09-28T07:18:00;11.02;;;6.57;;
74715;SDS011;63234;37.558;127.058;2022-09-28T07:20:30;12.98;;;7.25;;
74715;SDS011;63234;37.558;127.058;2022-09-28T07:22:58;11.48;;;6.60;;
74715;SDS011;63234;37.558;127.058;2022-09-28T07:25:27;13.57;;;6.82;;
74715;SDS011;63234;37.558;127.058;2022-09-28T07:27:56;16.02;;;7.15;;
74715;SDS011;63234;37.558;127.058;2022-09-28T07:30:27;8.48;;;5.93;;
74715;SDS011;63234;37.558;127.058;2022-09-28T07:32:59;12.95;;;6.90;;
74715;SDS011;63234;37.558;127.058;2022-09-28T07:35:26;10.52;;;6.07;;
74715;SDS011;63234;37.558;127.058;2022-09-28T07:37:57;12.75;;;7.20;;
74715;SDS011;63234;37.558;127.058;2022-09-28T07:40:28;15.57;;;8.30;;
74715;SDS011;63234;37.558;127.058;2022-09-28T07:43:14;13.00;;;7.90;;
74715;SDS011;63234;37.558;127.058;2022-09-28T07:45:48;11.85;;;7.57;;
74715;SDS011;63234;37.558;127.058;2022-09-28T07:48:17;13.57;;;7.72;;
74715;SDS011;63234;37.558;127.058;2022-09-28T07:50:47;9.98;;;7.20;;
74715;SDS011;63234;37.558;127.058;2022-09-28T07:53:19;12.18;;;6.82;;
74715;SDS011;63234;37.558;127.058;2022-09-28T07:55:54;13.82;;;7.45;;
74715;SDS011;63234;37.558;127.058;2022-09-28T07:58:32;18.00;;;8.95;;
74715;SDS011;63234;37.558;127.058;2022-09-28T08:01:03;14.80;;;8.32;;
74715;SDS011;63234;37.558;127.058;2022-09-28T08:03:32;13.13;;;8.40;;
74715;SDS011;63234;37.558;127.058;2022-09-28T08:06:00;17.17;;;8.48;;
74715;SDS011;63234;37.558;127.058;2022-09-28T08:08:29;12.35;;;8.32;;
74715;SDS011;63234;37.558;127.058;2022-09-28T08:10:58;12.43;;;8.27;;
74715;SDS011;63234;37.558;127.058;2022-09-28T08:13:25;12.27;;;7.43;;
74715;SDS011;63234;37.558;127.058;2022-09-28T08:15:52;14.95;;;7.97;;
74715;SDS011;63234;37.558;127.058;2022-09-28T08:18:19;11.63;;;7.97;;
74715;SDS011;63234;37.558;127.058;2022-09-28T08:20:50;13.77;;;8.45;;
74715;SDS011;63234;37.558;127.058;2022-09-28T08:23:36;29.48;;;19.27;;
74715;SDS011;63234;37.558;127.058;2022-09-28T08:26:03;20.35;;;10.23;;
74715;SDS011;63234;37.558;127.058;2022-09-28T08:28:31;19.55;;;9.60;;
74715;SDS011;63234;37.558;127.058;2022-09-28T08:30:59;16.90;;;9.57;;
74715;SDS011;63234;37.558;127.058;2022-09-28T08:33:26;14.02;;;8.63;;
74715;SDS011;63234;37.558;127.058;2022-09-28T08:35:54;12.65;;;8.30;;
74715;SDS011;63234;37.558;127.058;2022-09-28T08:38:23;13.05;;;8.50;;
74715;SDS011;63234;37.558;127.058;2022-09-28T08:46:15;14.27;;;7.65;;
74715;SDS011;63234;37.558;127.058;2022-09-28T08:51:37;15.90;;;7.88;;
74715;SDS011;63234;37.558;127.058;2022-09-28T08:57:00;12.95;;;8.82;;
74715;SDS011;63234;37.558;127.058;2022-09-28T08:59:42;15.40;;;10.05;;
74715;SDS011;63234;37.558;127.058;2022-09-28T09:02:22;13.35;;;9.38;;
74715;SDS011;63234;37.558;127.058;2022-09-28T09:05:02;15.13;;;9.27;;
74715;SDS011;63234;37.558;127.058;2022-09-28T09:10:30;31.42;;;14.63;;
74715;SDS011;63234;37.558;127.058;2022-09-28T09:18:54;39.42;;;23.05;;
74715;SDS011;63234;37.558;127.058;2022-09-28T09:29:38;40.92;;;26.58;;
74715;SDS011;63234;37.558;127.058;2022-09-28T09:41:19;51.20;;;31.42;;
74715;SDS011;63234;37.558;127.058;2022-09-28T09:47:30;51.25;;;31.65;;
74715;SDS011;63234;37.558;127.058;2022-09-28T09:53:44;40.13;;;31.08;;
74715;SDS011;63234;37.558;127.058;2022-09-28T09:56:11;56.58;;;34.15;;
74715;SDS011;63234;37.558;127.058;2022-09-28T09:58:49;50.75;;;33.55;;
74715;SDS011;63234;37.558;127.058;2022-09-28T10:01:24;52.75;;;34.22;;
74715;SDS011;63234;37.558;127.058;2022-09-28T10:03:58;50.97;;;33.63;;
74715;SDS011;63234;37.558;127.058;2022-09-28T10:06:28;65.82;;;37.10;;
74715;SDS011;63234;37.558;127.058;2022-09-28T10:09:08;53.10;;;35.17;;
74715;SDS011;63234;37.558;127.058;2022-09-28T10:11:59;56.85;;;37.17;;
74715;SDS011;63234;37.558;127.058;2022-09-28T10:14:26;58.95;;;36.38;;
74715;SDS011;63234;37.558;127.058;2022-09-28T10:16:55;55.72;;;35.75;;
74715;SDS011;63234;37.558;127.058;2022-09-28T10:19:32;52.53;;;36.15;;
74715;SDS011;63234;37.558;127.058;2022-09-28T10:22:02;51.42;;;36.75;;
74715;SDS011;63234;37.558;127.058;2022-09-28T10:27:10;51.42;;;36.65;;
74715;SDS011;63234;37.558;127.058;2022-09-28T10:29:42;58.45;;;38.72;;
74715;SDS011;63234;37.558;127.058;2022-09-28T10:32:25;59.22;;;41.92;;
74715;SDS011;63234;37.558;127.058;2022-09-28T10:40:57;66.35;;;42.22;;
74715;SDS011;63234;37.558;127.058;2022-09-28T10:43:38;64.35;;;41.63;;
74715;SDS011;63234;37.558;127.058;2022-09-28T10:46:19;61.10;;;43.33;;
74715;SDS011;63234;37.558;127.058;2022-09-28T10:51:17;68.50;;;44.55;;
74715;SDS011;63234;37.558;127.058;2022-09-28T10:54:00;60.30;;;42.95;;
74715;SDS011;63234;37.558;127.058;2022-09-28T10:56:28;65.57;;;43.42;;
74715;SDS011;63234;37.558;127.058;2022-09-28T10:59:14;62.70;;;42.83;;
74715;SDS011;63234;37.558;127.058;2022-09-28T11:01:58;71.70;;;43.50;;
74715;SDS011;63234;37.558;127.058;2022-09-28T11:04:39;64.43;;;43.65;;
74715;SDS011;63234;37.558;127.058;2022-09-28T11:07:17;60.15;;;43.53;;
74715;SDS011;63234;37.558;127.058;2022-09-28T11:09:48;64.72;;;45.00;;
74715;SDS011;63234;37.558;127.058;2022-09-28T11:12:21;75.70;;;48.65;;
74715;SDS011;63234;37.558;127.058;2022-09-28T11:15:50;72.20;;;47.80;;
74715;SDS011;63234;37.558;127.058;2022-09-28T11:18:18;69.28;;;46.22;;
74715;SDS011;63234;37.558;127.058;2022-09-28T11:21:08;68.82;;;45.83;;
74715;SDS011;63234;37.558;127.058;2022-09-28T11:23:40;71.55;;;46.35;;
74715;SDS011;63234;37.558;127.058;2022-09-28T11:26:19;80.43;;;49.60;;
74715;SDS011;63234;37.558;127.058;2022-09-28T11:28:50;74.13;;;47.33;;
74715;SDS011;63234;37.558;127.058;2022-09-28T11:31:25;71.13;;;46.13;;
74715;SDS011;63234;37.558;127.058;2022-09-28T11:34:11;67.05;;;46.38;;
74715;SDS011;63234;37.558;127.058;2022-09-28T11:37:02;67.97;;;47.13;;
74715;SDS011;63234;37.558;127.058;2022-09-28T11:45:08;76.60;;;46.67;;
74715;SDS011;63234;37.558;127.058;2022-09-28T11:53:44;72.25;;;47.10;;
74715;SDS011;63234;37.558;127.058;2022-09-28T11:56:32;69.22;;;45.28;;
74715;SDS011;63234;37.558;127.058;2022-09-28T12:07:34;68.93;;;42.38;;
74715;SDS011;63234;37.558;127.058;2022-09-28T12:10:10;59.58;;;39.05;;
74715;SDS011;63234;37.558;127.058;2022-09-28T12:12:53;51.97;;;34.83;;
74715;SDS011;63234;37.558;127.058;2022-09-28T12:15:27;52.92;;;34.60;;
74715;SDS011;63234;37.558;127.058;2022-09-28T12:18:07;45.65;;;32.35;;
74715;SDS011;63234;37.558;127.058;2022-09-28T12:20:44;37.75;;;28.55;;
74715;SDS011;63234;37.558;127.058;2022-09-28T12:25:56;29.83;;;20.02;;
74715;SDS011;63234;37.558;127.058;2022-09-28T12:34:01;30.40;;;20.10;;
74715;SDS011;63234;37.558;127.058;2022-09-28T12:42:27;27.80;;;16.95;;
74715;SDS011;63234;37.558;127.058;2022-09-28T12:45:18;31.08;;;19.25;;
74715;SDS011;63234;37.558;127.058;2022-09-28T12:48:26;30.02;;;19.30;;
74715;SDS011;63234;37.558;127.058;2022-09-28T12:53:45;22.42;;;16.67;;
74715;SDS011;63234;37.558;127.058;2022-09-28T13:04:28;27.10;;;17.25;;
74715;SDS011;63234;37.558;127.058;2022-09-28T13:20:45;74.00;;;45.00;;
74715;SDS011;63234;37.558;127.058;2022-09-28T13:23:26;104.47;;;66.18;;
74715;SDS011;63234;37.558;127.058;2022-09-28T13:26:41;108.82;;;67.82;;
74715;SDS011;63234;37.558;127.058;2022-09-28T13:29:09;98.22;;;61.67;;
74715;SDS011;63234;37.558;127.058;2022-09-28T13:31:46;118.68;;;69.22;;
74715;SDS011;63234;37.558;127.058;2022-09-28T13:34:25;122.43;;;77.07;;
74715;SDS011;63234;37.558;127.058;2022-09-28T13:39:59;128.50;;;78.20;;
74715;SDS011;63234;37.558;127.058;2022-09-28T13:42:38;129.95;;;81.10;;
74715;SDS011;63234;37.558;127.058;2022-09-28T13:56:26;150.85;;;92.57;;
74715;SDS011;63234;37.558;127.058;2022-09-28T13:59:09;168.63;;;99.82;;
74715;SDS011;63234;37.558;127.058;2022-09-28T14:01:51;183.85;;;101.63;;
74715;SDS011;63234;37.558;127.058;2022-09-28T14:04:56;182.50;;;102.63;;
74715;SDS011;63234;37.558;127.058;2022-09-28T14:07:54;183.48;;;106.63;;
74715;SDS011;63234;37.558;127.058;2022-09-28T14:18:48;192.18;;;110.82;;
74715;SDS011;63234;37.558;127.058;2022-09-28T14:29:43;183.75;;;104.47;;
74715;SDS011;63234;37.558;127.058;2022-09-28T14:34:39;181.35;;;103.55;;
74715;SDS011;63234;37.558;127.058;2022-09-28T14:40:15;187.50;;;106.03;;
74715;SDS011;63234;37.558;127.058;2022-09-28T14:43:20;169.07;;;94.82;;
74715;SDS011;63234;37.558;127.058;2022-09-28T14:45:56;132.40;;;77.90;;
74715;SDS011;63234;37.558;127.058;2022-09-28T14:48:50;151.95;;;85.10;;
74715;SDS011;63234;37.558;127.058;2022-09-28T14:53:51;146.65;;;84.93;;
74715;SDS011;63234;37.558;127.058;2022-09-28T14:56:20;142.23;;;83.38;;
74715;SDS011;63234;37.558;127.058;2022-09-28T14:58:50;137.52;;;83.68;;
74715;SDS011;63234;37.558;127.058;2022-09-28T15:01:21;145.88;;;81.40;;
74715;SDS011;63234;37.558;127.058;2022-09-28T15:03:57;147.45;;;83.05;;
74715;SDS011;63234;37.558;127.058;2022-09-28T15:09:29;141.48;;;77.45;;
74715;SDS011;63234;37.558;127.058;2022-09-28T15:12:02;122.72;;;69.75;;
74715;SDS011;63234;37.558;127.058;2022-09-28T15:14:40;129.20;;;71.82;;
74715;SDS011;63234;37.558;127.058;2022-09-28T15:17:15;111.50;;;66.15;;
74715;SDS011;63234;37.558;127.058;2022-09-28T15:22:33;83.63;;;52.40;;
74715;SDS011;63234;37.558;127.058;2022-09-28T15:25:02;74.50;;;45.20;;
74715;SDS011;63234;37.558;127.058;2022-09-28T15:27:37;62.75;;;39.92;;
74715;SDS011;63234;37.558;127.058;2022-09-28T15:32:57;57.58;;;36.30;;
74715;SDS011;63234;37.558;127.058;2022-09-28T15:36:03;62.15;;;41.15;;
74715;SDS011;63234;37.558;127.058;2022-09-28T15:38:32;75.22;;;46.00;;
74715;SDS011;63234;37.558;127.058;2022-09-28T15:41:04;59.25;;;39.70;;
74715;SDS011;63234;37.558;127.058;2022-09-28T15:43:34;70.68;;;45.15;;
74715;SDS011;63234;37.558;127.058;2022-09-28T15:46:06;81.15;;;47.92;;
74715;SDS011;63234;37.558;127.058;2022-09-28T15:48:45;79.60;;;47.55;;
74715;SDS011;63234;37.558;127.058;2022-09-28T15:51:16;82.28;;;47.45;;
74715;SDS011;63234;37.558;127.058;2022-09-28T15:56:12;65.93;;;38.67;;
74715;SDS011;63234;37.558;127.058;2022-09-28T15:58:39;52.22;;;36.15;;
74715;SDS011;63234;37.558;127.058;2022-09-28T16:01:26;66.00;;;39.92;;
74715;SDS011;63234;37.558;127.058;2022-09-28T16:12:31;60.35;;;38.22;;
74715;SDS011;63234;37.558;127.058;2022-09-28T16:15:15;61.53;;;37.58;;
74715;SDS011;63234;37.558;127.058;2022-09-28T16:17:50;59.53;;;38.85;;
74715;SDS011;63234;37.558;127.058;2022-09-28T16:20:40;60.50;;;38.72;;
74715;SDS011;63234;37.558;127.058;2022-09-28T16:25:52;68.80;;;41.15;;
74715;SDS011;63234;37.558;127.058;2022-09-28T16:28:28;65.45;;;41.60;;
74715;SDS011;63234;37.558;127.058;2022-09-28T16:33:52;63.38;;;37.03;;
74715;SDS011;63234;37.558;127.058;2022-09-28T16:36:19;62.10;;;38.03;;
74715;SDS011;63234;37.558;127.058;2022-09-28T16:38:47;58.15;;;37.10;;
74715;SDS011;63234;37.558;127.058;2022-09-28T16:41:24;58.92;;;34.38;;
74715;SDS011;63234;37.558;127.058;2022-09-28T16:43:55;52.17;;;31.13;;
74715;SDS011;63234;37.558;127.058;2022-09-28T16:46:32;47.40;;;29.17;;
74715;SDS011;63234;37.558;127.058;2022-09-28T16:49:02;46.65;;;28.52;;
74715;SDS011;63234;37.558;127.058;2022-09-28T16:51:32;34.65;;;22.00;;
74715;SDS011;63234;37.558;127.058;2022-09-28T16:54:09;32.28;;;21.42;;
74715;SDS011;63234;37.558;127.058;2022-09-28T16:57:05;34.85;;;21.13;;
74715;SDS011;63234;37.558;127.058;2022-09-28T16:59:36;39.40;;;24.63;;
74715;SDS011;63234;37.558;127.058;2022-09-28T17:02:16;43.47;;;26.48;;
74715;SDS011;63234;37.558;127.058;2022-09-28T17:04:44;44.50;;;29.50;;
74715;SDS011;63234;37.558;127.058;2022-09-28T17:07:11;45.33;;;27.02;;
74715;SDS011;63234;37.558;127.058;2022-09-28T17:09:40;37.25;;;23.30;;
74715;SDS011;63234;37.558;127.058;2022-09-28T17:12:21;36.78;;;22.80;;
74715;SDS011;63234;37.558;127.058;2022-09-28T17:14:49;40.78;;;21.35;;
74715;SDS011;63234;37.558;127.058;2022-09-28T17:17:16;33.28;;;21.23;;
74715;SDS011;63234;37.558;127.058;2022-09-28T17:19:43;30.58;;;21.92;;
74715;SDS011;63234;37.558;127.058;2022-09-28T17:22:10;33.58;;;21.13;;
74715;SDS011;63234;37.558;127.058;2022-09-28T17:24:38;36.15;;;22.35;;
74715;SDS011;63234;37.558;127.058;2022-09-28T17:27:05;34.40;;;22.05;;
74715;SDS011;63234;37.558;127.058;2022-09-28T17:29:35;31.88;;;22.85;;
74715;SDS011;63234;37.558;127.058;2022-09-28T17:32:04;29.45;;;21.30;;
74715;SDS011;63234;37.558;127.058;2022-09-28T17:34:36;30.95;;;21.08;;
74715;SDS011;63234;37.558;127.058;2022-09-28T17:37:03;31.38;;;21.40;;
74715;SDS011;63234;37.558;127.058;2022-09-28T17:39:30;33.15;;;22.23;;
74715;SDS011;63234;37.558;127.058;2022-09-28T17:41:57;37.60;;;22.52;;
74715;SDS011;63234;37.558;127.058;2022-09-28T17:44:24;38.67;;;24.42;;
74715;SDS011;63234;37.558;127.058;2022-09-28T17:46:51;33.88;;;25.15;;
74715;SDS011;63234;37.558;127.058;2022-09-28T17:49:18;34.50;;;22.73;;
74715;SDS011;63234;37.558;127.058;2022-09-28T17:51:45;37.05;;;24.60;;
74715;SDS011;63234;37.558;127.058;2022-09-28T17:54:12;38.88;;;23.42;;
74715;SDS011;63234;37.558;127.058;2022-09-28T17:56:41;34.55;;;25.92;;
74715;SDS011;63234;37.558;127.058;2022-09-28T17:59:09;33.58;;;24.33;;
74715;SDS011;63234;37.558;127.058;2022-09-28T18:01:39;39.00;;;26.30;;
74715;SDS011;63234;37.558;127.058;2022-09-28T18:04:06;35.97;;;26.42;;
74715;SDS011;63234;37.558;127.058;2022-09-28T18:06:35;44.20;;;29.70;;
74715;SDS011;63234;37.558;127.058;2022-09-28T18:09:02;43.95;;;30.45;;
74715;SDS011;63234;37.558;127.058;2022-09-28T18:11:30;42.10;;;29.83;;
74715;SDS011;63234;37.558;127.058;2022-09-28T18:13:58;50.63;;;31.33;;
74715;SDS011;63234;37.558;127.058;2022-09-28T18:16:25;49.88;;;30.85;;
74715;SDS011;63234;37.558;127.058;2022-09-28T18:18:53;45.70;;;30.65;;